createdAt,value
2022-09-03T00:05:05.590Z,9.69
2022-09-03T00:10:16.373Z,9.67
2022-09-03T00:15:22.462Z,9.64
2022-09-03T00:20:33.619Z,9.61
2022-09-03T00:25:39.792Z,9.58
2022-09-03T00:30:46.632Z,9.52
2022-09-03T00:36:05.562Z,9.47
2022-09-03T00:41:11.843Z,9.44
2022-09-03T00:46:19.927Z,9.41
2022-09-03T00:51:38.024Z,9.38
2022-09-03T00:56:53.935Z,9.38
2022-09-03T01:02:09.681Z,9.36
2022-09-03T01:07:41.612Z,9.34
2022-09-03T01:12:51.787Z,9.32
2022-09-03T01:18:23.263Z,9.27
2022-09-03T01:24:11.520Z,9.20
2022-09-03T01:29:20.310Z,9.14
2022-09-03T01:34:32.479Z,9.08
2022-09-03T01:40:13.472Z,9.04
2022-09-03T01:45:21.903Z,9.00
2022-09-03T01:50:35.250Z,8.98
2022-09-03T01:55:47.774Z,8.96
2022-09-03T02:01:02.249Z,8.92
2022-09-03T02:06:07.373Z,8.90
2022-09-03T02:11:11.021Z,8.88
2022-09-03T02:16:17.577Z,8.85
2022-09-03T02:21:24.912Z,8.80
2022-09-03T02:26:28.132Z,8.74
2022-09-03T02:31:32.250Z,8.70
2022-09-03T02:36:39.767Z,8.67
2022-09-03T02:41:44.795Z,8.62
2022-09-03T02:46:53.754Z,8.57
2022-09-03T02:52:09.654Z,8.48
2022-09-03T02:57:15.741Z,8.41
2022-09-03T03:02:19.076Z,8.36
2022-09-03T03:07:22.970Z,8.30
2022-09-03T03:12:26.795Z,8.23
2022-09-03T03:17:30.308Z,8.24
2022-09-03T03:22:33.721Z,8.21
2022-09-03T03:27:40.207Z,8.21
2022-09-03T03:32:43.416Z,8.19
2022-09-03T03:37:47.034Z,8.13
2022-09-03T03:42:50.548Z,8.12
2022-09-03T03:47:58.159Z,8.08
2022-09-03T03:53:01.892Z,8.05
2022-09-03T03:58:05.498Z,8.05
2022-09-03T04:03:08.707Z,8.04
2022-09-03T04:08:13.554Z,8.04
2022-09-03T04:13:17.274Z,8.08
2022-09-03T04:18:20.687Z,8.13
2022-09-03T04:23:24.103Z,8.15
2022-09-03T04:28:27.999Z,8.06
2022-09-03T04:33:34.555Z,8.12
2022-09-03T04:38:40.550Z,8.26
2022-09-03T04:43:44.541Z,8.38
2022-09-03T04:48:51.660Z,8.48
2022-09-03T04:54:01.668Z,8.60
2022-09-03T04:59:08.463Z,8.76
2022-09-03T05:04:11.884Z,8.91
2022-09-03T05:09:15.400Z,9.09
2022-09-03T05:14:20.444Z,9.28
2022-09-03T05:19:24.032Z,9.51
2022-09-03T05:24:28.717Z,9.79
2022-09-03T05:29:34.790Z,9.93
2022-09-03T05:34:38.535Z,10.04
2022-09-03T05:39:42.666Z,10.22
2022-09-03T05:44:46.766Z,10.38
2022-09-03T05:49:53.356Z,10.48
2022-09-03T05:54:56.869Z,10.67
2022-09-03T06:00:00.691Z,10.95
2022-09-03T06:05:04.562Z,11.20
2022-09-03T06:10:08.444Z,11.40
2022-09-03T06:15:11.855Z,11.58
2022-09-03T06:20:15.535Z,11.80
2022-09-03T06:25:19.703Z,11.96
2022-09-03T06:30:25.902Z,12.08
2022-09-03T06:35:29.522Z,12.27
2022-09-03T06:40:37.363Z,12.44
2022-09-03T06:45:40.752Z,12.54
2022-09-03T06:50:44.258Z,12.70
2022-09-03T06:55:57.489Z,12.80
2022-09-03T07:01:18.199Z,12.95
2022-09-03T07:06:22.646Z,13.04
2022-09-03T07:11:29.677Z,13.18
2022-09-03T07:16:35.244Z,13.35
2022-09-03T07:21:38.725Z,13.49
2022-09-03T07:26:47.355Z,13.63
2022-09-03T07:31:52.654Z,13.79
2022-09-03T07:36:56.537Z,13.96
2022-09-03T07:42:00.565Z,14.17
2022-09-03T07:47:07.486Z,14.23
2022-09-03T07:52:11.982Z,14.44
2022-09-03T07:57:17.334Z,14.59
2022-09-03T08:02:20.552Z,14.60
2022-09-03T08:07:23.735Z,14.68
2022-09-03T08:12:27.295Z,14.73
2022-09-03T08:17:30.500Z,14.93
2022-09-03T08:22:34.629Z,15.16
2022-09-03T08:27:38.046Z,15.30
2022-09-03T08:32:41.559Z,15.32
2022-09-03T08:37:45.073Z,15.38
2022-09-03T08:43:09.943Z,15.50
2022-09-03T08:48:23.827Z,15.59
2022-09-03T08:53:42.928Z,15.70
2022-09-03T08:58:46.444Z,15.75
2022-09-03T09:04:15.418Z,15.92
2022-09-03T09:09:26.194Z,16.07
2022-09-03T09:14:39.355Z,16.21
2022-09-03T09:20:02.703Z,16.28
2022-09-03T09:25:18.074Z,16.34
2022-09-03T09:30:21.535Z,16.48
2022-09-03T09:35:25.592Z,16.49
2022-09-03T09:40:34.157Z,16.58
2022-09-03T09:46:08.703Z,16.70
2022-09-03T09:51:19.332Z,16.78
2022-09-03T09:56:25.078Z,16.90
2022-09-03T10:01:30.598Z,17.00
2022-09-03T10:06:54.002Z,16.95
2022-09-03T10:12:06.092Z,17.01
2022-09-03T10:17:30.085Z,17.07
2022-09-03T10:22:57.062Z,17.09
2022-09-03T10:28:02.371Z,17.03
2022-09-03T10:33:19.544Z,17.02
2022-09-03T10:38:38.313Z,17.00
2022-09-03T10:43:47.973Z,17.04
2022-09-03T10:49:14.324Z,17.19
2022-09-03T10:54:36.273Z,17.25
2022-09-03T10:59:48.492Z,17.22
2022-09-03T11:05:03.373Z,17.27
2022-09-03T11:10:25.328Z,17.32
2022-09-03T11:15:55.415Z,17.36
2022-09-03T11:21:01.740Z,17.35
2022-09-03T11:26:13.014Z,17.47
2022-09-03T11:31:45.226Z,17.54
2022-09-03T11:36:48.539Z,17.69
2022-09-03T11:42:00.069Z,17.85
2022-09-03T11:47:16.006Z,17.81
2022-09-03T11:52:33.080Z,17.85
2022-09-03T11:57:43.971Z,17.92
2022-09-03T12:03:02.352Z,17.92
2022-09-03T12:08:24.338Z,18.08
2022-09-03T12:13:43.667Z,18.06
2022-09-03T12:18:53.145Z,18.05
2022-09-03T12:23:58.250Z,18.05
2022-09-03T12:29:02.254Z,18.18
2022-09-03T12:34:11.144Z,18.22
2022-09-03T12:44:50.133Z,18.23
2022-09-03T12:49:59.030Z,18.35
2022-09-03T12:55:08.625Z,18.32
2022-09-03T13:00:17.124Z,18.37
2022-09-03T13:05:29.684Z,18.48
2022-09-03T13:10:42.623Z,18.51
2022-09-03T13:16:34.040Z,18.46
2022-09-03T13:22:31.131Z,18.48
2022-09-03T13:28:02.909Z,18.57
2022-09-03T13:33:19.164Z,18.56
2022-09-03T13:38:36.933Z,18.63
2022-09-03T13:43:46.018Z,18.70
2022-09-03T13:49:10.732Z,18.82
2022-09-03T13:54:30.979Z,18.82
2022-09-03T13:59:52.168Z,18.62
2022-09-03T14:05:12.683Z,18.77
2022-09-03T14:10:42.927Z,18.89
2022-09-03T14:16:09.196Z,19.07
2022-09-03T14:21:21.803Z,19.81
2022-09-03T14:26:39.161Z,23.56
2022-09-03T14:32:10.556Z,27.60
2022-09-03T14:37:39.935Z,31.30
2022-09-03T14:42:55.227Z,35.14
2022-09-03T14:48:10.211Z,36.73
2022-09-03T14:54:12.198Z,37.98
2022-09-03T14:59:52.578Z,40.60
2022-09-03T15:05:20.053Z,43.51
2022-09-03T15:10:37.192Z,44.51
2022-09-03T15:15:43.265Z,45.39
2022-09-03T15:20:50.263Z,46.18
2022-09-03T15:25:59.724Z,46.40
2022-09-03T15:31:46.719Z,46.03
2022-09-03T15:36:55.995Z,46.25
2022-09-03T15:42:07.199Z,47.18
2022-09-03T15:47:14.702Z,46.01
2022-09-03T15:52:25.185Z,44.63
2022-09-03T15:58:04.852Z,43.82
2022-09-03T16:03:23.877Z,43.46
2022-09-03T16:08:54.084Z,42.89
2022-09-03T16:14:09.580Z,42.27
2022-09-03T16:19:25.471Z,41.90
2022-09-03T16:25:04.111Z,40.72
2022-09-03T16:30:13.868Z,39.53
2022-09-03T16:35:32.238Z,38.44
2022-09-03T16:40:35.400Z,37.30
2022-09-03T16:45:55.347Z,35.60
2022-09-03T16:51:06.848Z,34.01
2022-09-03T16:56:10.055Z,33.16
2022-09-03T17:01:39.677Z,31.58
2022-09-03T17:07:04.909Z,30.02
2022-09-03T17:12:21.435Z,28.16
2022-09-03T17:17:43.274Z,26.22
2022-09-03T17:23:13.720Z,23.90
2022-09-03T17:29:02.906Z,21.43
2022-09-03T17:34:55.062Z,19.44
2022-09-03T17:40:26.431Z,18.15
2022-09-03T17:45:47.560Z,17.29
2022-09-03T17:50:57.218Z,16.61
2022-09-03T17:56:10.880Z,16.04
2022-09-03T18:01:20.783Z,15.61
2022-09-03T18:06:51.713Z,15.28
2022-09-03T18:12:07.247Z,14.99
2022-09-03T18:17:20.434Z,14.74
2022-09-03T18:22:48.425Z,14.56
2022-09-03T18:28:16.106Z,14.39
2022-09-03T18:33:44.095Z,14.25
2022-09-03T18:39:06.143Z,14.07
2022-09-03T18:44:46.065Z,13.88
2022-09-03T18:50:53.837Z,13.73
2022-09-03T18:57:32.393Z,13.62
2022-09-03T19:03:16.688Z,13.44
2022-09-03T19:08:51.910Z,13.34
2022-09-03T19:14:20.513Z,13.22
2022-09-03T19:20:00.381Z,13.12
2022-09-03T19:25:28.990Z,13.02
2022-09-03T19:31:22.830Z,12.95
2022-09-03T19:37:09.775Z,12.80
2022-09-03T19:42:34.327Z,12.66
2022-09-03T19:48:15.011Z,12.52
2022-09-03T19:53:38.290Z,12.38
2022-09-03T19:59:13.445Z,12.27
2022-09-03T20:04:37.544Z,12.21
2022-09-03T20:10:02.055Z,12.10
2022-09-03T20:15:06.442Z,12.00
2022-09-03T20:20:34.581Z,11.91
2022-09-03T20:25:44.446Z,11.82
2022-09-03T20:31:06.466Z,11.71
2022-09-03T20:36:27.016Z,11.63
2022-09-03T20:42:02.064Z,11.55
2022-09-03T20:47:42.964Z,11.47
2022-09-03T20:53:11.870Z,11.37
2022-09-03T20:58:38.733Z,11.27
2022-09-03T21:03:44.908Z,11.20
2022-09-03T21:08:57.335Z,11.15
2022-09-03T21:14:18.769Z,11.11
2022-09-03T21:19:49.527Z,11.08
2022-09-03T21:25:02.151Z,11.05
2022-09-03T21:30:10.094Z,11.00
2022-09-03T21:35:28.640Z,10.94
2022-09-03T21:40:33.293Z,10.88
2022-09-03T21:45:46.288Z,10.82
2022-09-03T21:51:00.485Z,10.77
2022-09-03T21:56:09.530Z,10.71
2022-09-03T22:01:23.850Z,10.66
2022-09-03T22:06:50.455Z,10.60
2022-09-03T22:12:14.349Z,10.54
2022-09-03T22:17:46.538Z,10.49
2022-09-03T22:22:58.418Z,10.44
2022-09-03T22:28:17.309Z,10.39
2022-09-03T22:33:49.922Z,10.34
2022-09-03T22:39:03.373Z,10.31
2022-09-03T22:44:21.938Z,10.25
2022-09-03T22:49:38.971Z,10.20
2022-09-03T22:55:06.756Z,10.16
2022-09-03T23:00:11.709Z,10.09
2022-09-03T23:05:18.038Z,10.04
2022-09-03T23:10:33.890Z,9.98
2022-09-03T23:15:40.683Z,9.92
2022-09-03T23:20:50.837Z,9.86
2022-09-03T23:26:16.182Z,9.79
2022-09-03T23:31:23.204Z,9.75
2022-09-03T23:37:16.106Z,9.70
2022-09-03T23:42:55.919Z,9.68
2022-09-03T23:48:13.771Z,9.63
2022-09-03T23:53:26.093Z,9.62
2022-09-03T23:58:42.821Z,9.60
